This is the latest recevied weather packets stored in our database for station/object SQ7RAF-15. If no packets are shown the sender has not sent any weather packets the latest 10 day(s).
| Time | Temp. | Humidity | Pressure | Rain* | Wind** | Luminosity | Snow |
|---|---|---|---|---|---|---|---|
| 1777462826 | 7.22° C | 50% | 1028.6 hPa | 0 mm | - | 200 W/m² | - |
| 1777462522 | 6.67° C | 50% | 1028.6 hPa | 0 mm | - | 167 W/m² | - |
| 1777462219 | 6.67° C | 50% | 1028.6 hPa | 0 mm | - | 176 W/m² | - |
| 1777461929 | 6.67° C | 49% | 1028.7 hPa | 0 mm | - | 189 W/m² | - |
| 1777461641 | 7.22° C | 49% | 1028.7 hPa | 0 mm | - | 153 W/m² | - |
| 1777461321 | 7.22° C | 47% | 1028.6 hPa | 0 mm | - | 149 W/m² | - |
| 1777461033 | 7.78° C | 46% | 1028.6 hPa | 0 mm | - | 243 W/m² | - |
| 1777460745 | 7.78° C | 46% | 1028.6 hPa | 0 mm | - | 314 W/m² | - |
| 1777460441 | 7.78° C | 45% | 1028.6 hPa | 0 mm | - | 247 W/m² | - |
| 1777460121 | 7.78° C | 46% | 1028.6 hPa | 0 mm | - | 653 W/m² | - |
| 1777459833 | 7.22° C | 47% | 1028.5 hPa | 0 mm | - | 516 W/m² | - |
| 1777459529 | 6.67° C | 50% | 1028.7 hPa | 0 mm | - | 414 W/m² | - |
| 1777459241 | 7.78° C | 48% | 1028.8 hPa | 0 mm | - | 165 W/m² | - |
| 1777458921 | 8.33° C | 46% | 1028.6 hPa | 0 mm | - | 491 W/m² | - |
| 1777458617 | 7.22° C | 49% | 1028.6 hPa | 0 mm | - | 697 W/m² | - |
| 1777458330 | 6.67° C | 51% | 1028.7 hPa | 0 mm | - | 410 W/m² | - |
| 1777458027 | 7.22° C | 49% | 1028.7 hPa | 0 mm | - | 179 W/m² | - |
| 1777457737 | 7.22° C | 49% | 1028.6 hPa | 0 mm | - | 344 W/m² | - |
| 1777457418 | 7.78° C | 46% | 1028.6 hPa | 0 mm | - | 300 W/m² | - |
| 1777457161 | 8.33° C | 46% | 1028.6 hPa | 0 mm | - | 246 W/m² | - |
| 1777456858 | 6.67° C | 48% | 1028.5 hPa | 0 mm | - | 778 W/m² | - |
| 1777456521 | 6.67° C | 49% | 1028.6 hPa | 0 mm | - | 378 W/m² | - |
| 1777456234 | 6.67° C | 50% | 1028.6 hPa | 0 mm | - | 223 W/m² | - |
| 1777455945 | 6.67° C | 50% | 1028.5 hPa | 0 mm | - | 380 W/m² | - |
| 1777455625 | 7.22° C | 48% | 1028.4 hPa | 0 mm | - | 229 W/m² | - |
* Rain latest hour (hover to see other rain measurements)
** Current wind speed in m/s (hover to see current wind gust speed)